Time+08,TemperatureF,Dew PointF,Humidity,Sea Level PressureIn,VisibilityMPH,Wind Direction,Wind SpeedMPH,Gust SpeedMPH,PrecipitationIn,Events,Conditions,WindDirDegrees,DateUTC
2:00 AM,71,69,93,29.88,7,Calm,Calm,,,,Scattered Clouds,,2013-02-13 18:00:00
5:00 AM,68,67,95,29.88,7,Calm,Calm,,,,Scattered Clouds,,2013-02-13 21:00:00
6:00 AM,66.2,66.2,100,29.89,6.2,East,2.3,-,N/A,,Partly Cloudy,90,2013-02-13 22:00:00
7:00 AM,66.2,64.4,94,29.89,6.2,East,2.3,-,N/A,,Partly Cloudy,90,2013-02-13 23:00:00
8:00 AM,72,65,73,29.92,6,East,4.5,,,,Haze,90,2013-02-14 00:00:00
8:00 AM,71.6,64.4,78,29.92,6.2,East,4.6,-,N/A,,Partly Cloudy,90,2013-02-14 00:00:00
9:00 AM,80.6,68.0,65,29.92,6.2,ESE,2.3,-,N/A,,Partly Cloudy,110,2013-02-14 01:00:00
10:00 AM,86.0,66.2,51,29.92,6.2,SW,2.3,-,N/A,,Partly Cloudy,220,2013-02-14 02:00:00
11:00 AM,86,69,47,29.91,7,West,6.7,,,,Haze,270,2013-02-14 03:00:00
11:00 AM,86.0,68.0,55,29.92,6.2,West,6.9,-,N/A,,Partly Cloudy,270,2013-02-14 03:00:00
12:00 PM,86.0,68.0,55,29.89,6.2,WNW,9.2,-,N/A,,Partly Cloudy,290,2013-02-14 04:00:00
1:00 PM,87.8,69.8,55,29.86,6.2,NNW,13.8,-,N/A,,Partly Cloudy,340,2013-02-14 05:00:00
2:00 PM,86,70,49,29.85,7,NNW,13.4,,,,Haze,340,2013-02-14 06:00:00
2:00 PM,86.0,69.8,58,29.83,6.2,NNW,13.8,-,N/A,,Partly Cloudy,340,2013-02-14 06:00:00
3:00 PM,87.8,69.8,55,29.83,6.2,NNW,11.5,-,N/A,,Partly Cloudy,340,2013-02-14 07:00:00
4:00 PM,87.8,69.8,55,29.83,6.2,NNW,11.5,-,N/A,,Partly Cloudy,340,2013-02-14 08:00:00
5:00 PM,86,71,52,29.83,7,NNW,11.2,,,,Haze,340,2013-02-14 09:00:00
5:00 PM,86.0,71.6,62,29.83,6.2,NNW,11.5,-,N/A,,Partly Cloudy,340,2013-02-14 09:00:00
6:00 PM,82.4,73.4,74,29.83,6.2,NNW,4.6,-,N/A,,Scattered Clouds,340,2013-02-14 10:00:00
8:00 PM,77,72,80,29.88,7,South,2.2,,,,Partly Cloudy,180,2013-02-14 12:00:00
11:00 PM,73,70,89,29.91,6,East,4.5,,,,Scattered Clouds,90,2013-02-14 15:00:00